Time;durP1;ratioP1;P1;durP2;ratioP2;P2;SDS_P1;SDS_P2;PMS_P1;PMS_P2;Temp;Humidity;BMP_temperature;BMP_pressure;BME280_temperature;BME280_humidity;BME280_pressure;Samples;Min_cycle;Max_cycle;Signal;HPM_P1;HPM_P2
2021/06/09 00:00:12;;;;;;;1.60;1.13;;;;;;;15.28;85.50;101106.59;5958164;23;20389;-85
2021/06/09 00:02:37;;;;;;;3.47;1.38;;;;;;;15.16;85.79;101100.03;5957928;23;20011;-85
2021/06/09 00:05:04;;;;;;;2.03;1.00;;;;;;;15.21;85.82;101105.69;5958692;23;20091;-84
2021/06/09 00:07:29;;;;;;;1.52;1.10;;;;;;;15.20;86.20;101100.50;5958530;23;20144;-85
2021/06/09 00:09:55;;;;;;;1.33;1.20;;;;;;;15.17;85.93;101099.00;5957455;23;20031;-85
2021/06/09 00:12:20;;;;;;;1.90;1.40;;;;;;;15.24;86.05;101097.19;5958073;23;20048;-84
2021/06/09 00:14:45;;;;;;;2.17;1.25;;;;;;;15.30;86.03;101106.41;5958326;23;20023;-85
2021/06/09 00:17:11;;;;;;;1.70;1.10;;;;;;;15.27;86.14;101095.94;5958900;23;20018;-85
2021/06/09 00:19:36;;;;;;;2.00;1.20;;;;;;;15.28;86.19;101089.50;5956790;23;20045;-84
2021/06/09 00:22:02;;;;;;;2.00;1.10;;;;;;;15.23;86.22;101087.38;5958413;23;20015;-85
2021/06/09 00:24:28;;;;;;;2.17;1.30;;;;;;;15.29;86.29;101089.28;5957829;23;20038;-85
2021/06/09 00:26:54;;;;;;;1.92;1.00;;;;;;;15.37;86.29;101096.41;5958066;23;20701;-86
2021/06/09 00:29:20;;;;;;;2.00;1.30;;;;;;;15.37;86.13;101086.44;5957973;23;20063;-84
2021/06/09 00:31:46;;;;;;;2.03;1.38;;;;;;;15.37;86.10;101082.88;5959062;23;20056;-85
2021/06/09 00:34:11;;;;;;;2.47;1.50;;;;;;;15.21;86.14;101065.06;5981377;23;20015;-85
2021/06/09 00:36:37;;;;;;;3.25;1.60;;;;;;;15.38;86.51;101088.09;5958439;23;20034;-85
2021/06/09 00:39:04;;;;;;;2.65;1.90;;;;;;;15.40;85.99;101090.63;5980077;23;20019;-85
2021/06/09 00:41:29;;;;;;;4.72;1.75;;;;;;;15.39;86.34;101083.50;5981219;23;20027;-86
2021/06/09 00:43:56;;;;;;;3.35;1.90;;;;;;;15.36;86.45;101079.34;5957718;23;20437;-85
2021/06/09 00:46:21;;;;;;;2.22;1.67;;;;;;;15.34;86.21;101075.97;5957880;23;20018;-85
2021/06/09 00:48:47;;;;;;;3.78;1.60;;;;;;;15.04;86.59;101031.22;5980241;23;20004;-84
2021/06/09 00:51:16;;;;;;;1.98;1.48;;;;;;;15.34;86.59;101081.41;5958305;23;20019;-85
2021/06/09 00:54:03;;;;;;;1.63;1.20;;;;;;;15.34;86.71;101085.97;5958645;23;20008;-85
2021/06/09 00:56:30;;;;;;;2.00;1.50;;;;;;;15.36;86.61;101087.47;5986351;23;20086;-85
2021/06/09 00:58:55;;;;;;;1.70;1.20;;;;;;;15.33;86.42;101074.31;5956716;23;20499;-85
2021/06/09 01:01:23;;;;;;;1.60;1.15;;;;;;;15.39;86.62;101080.81;5957469;23;20551;-85
2021/06/09 01:03:50;;;;;;;2.60;1.45;;;;;;;15.38;86.59;101082.69;5957005;23;20008;-85
2021/06/09 01:06:15;;;;;;;2.25;1.55;;;;;;;15.39;86.76;101088.94;5958290;23;20027;-85
2021/06/09 01:08:43;;;;;;;2.60;1.70;;;;;;;15.26;86.64;101069.88;5957201;23;20007;-85
2021/06/09 01:11:21;;;;;;;1.65;1.20;;;;;;;15.36;86.84;101089.34;5981862;23;20015;-85
2021/06/09 01:13:48;;;;;;;1.83;1.40;;;;;;;15.35;87.04;101082.25;5959308;23;20030;-85
2021/06/09 01:16:14;;;;;;;2.65;1.83;;;;;;;15.34;87.00;101083.28;5980534;23;20004;-84
2021/06/09 01:18:39;;;;;;;2.72;1.85;;;;;;;15.28;87.25;101074.06;5980851;23;20007;-85
2021/06/09 01:21:05;;;;;;;2.45;1.77;;;;;;;15.24;87.11;101070.09;5956395;23;20019;-84
2021/06/09 01:23:31;;;;;;;3.53;1.60;;;;;;;15.13;87.25;101052.50;5957600;23;20011;-85
2021/06/09 01:25:57;;;;;;;2.15;1.63;;;;;;;15.19;87.37;101061.75;5957748;23;20007;-85
2021/06/09 01:28:24;;;;;;;2.53;2.13;;;;;;;15.07;87.53;101047.06;5980008;23;20024;-86
2021/06/09 01:30:50;;;;;;;2.47;1.88;;;;;;;15.08;87.72;101051.44;5956946;23;20090;-85
2021/06/09 01:33:16;;;;;;;2.33;2.10;;;;;;;15.06;87.78;101051.66;5956960;23;20007;-86
2021/06/09 01:35:43;;;;;;;3.78;1.88;;;;;;;15.12;87.87;101063.56;5957411;23;20052;-85
2021/06/09 01:38:08;;;;;;;2.88;2.17;;;;;;;15.06;88.23;101059.78;5957747;23;20031;-85
2021/06/09 01:40:34;;;;;;;2.83;1.80;;;;;;;15.05;88.17;101054.53;5981198;23;20018;-84
2021/06/09 01:43:01;;;;;;;4.82;1.75;;;;;;;15.05;88.53;101057.25;5958723;23;20003;-85
2021/06/09 01:45:29;;;;;;;2.17;1.67;;;;;;;15.04;88.39;101048.28;5980114;23;20042;-85
2021/06/09 01:47:55;;;;;;;2.97;2.03;;;;;;;14.99;88.36;101045.34;5956761;23;20015;-85
2021/06/09 01:50:22;;;;;;;2.30;1.73;;;;;;;15.01;88.65;101046.00;5959101;23;20437;-85
2021/06/09 01:52:48;;;;;;;1.85;1.55;;;;;;;14.93;88.34;101025.31;5979440;23;20004;-85
2021/06/09 01:55:15;;;;;;;2.38;1.92;;;;;;;15.01;88.15;101048.69;5980845;23;19996;-86
2021/06/09 01:57:41;;;;;;;3.38;1.88;;;;;;;14.97;88.69;101033.03;5979797;23;20004;-86
2021/06/09 02:00:28;;;;;;;2.80;1.92;;;;;;;15.00;88.28;101040.75;5980492;23;20068;-85
2021/06/09 02:02:59;;;;;;;2.65;1.80;;;;;;;14.96;88.32;101040.31;5979877;23;20346;-85
2021/06/09 02:05:27;;;;;;;3.42;1.98;;;;;;;15.02;88.26;101049.53;5957341;23;20012;-85
2021/06/09 02:07:52;;;;;;;2.33;1.90;;;;;;;15.01;88.34;101043.28;5956705;23;20012;-85
2021/06/09 02:10:20;;;;;;;2.60;2.20;;;;;;;14.92;88.32;101030.91;5980821;23;20018;-85
2021/06/09 02:12:51;;;;;;;2.72;2.30;;;;;;;14.98;88.13;101038.25;5981527;23;20700;-85
2021/06/09 02:15:19;;;;;;;2.60;2.03;;;;;;;14.91;88.24;101027.38;5957142;23;20346;-84
2021/06/09 02:18:11;;;;;;;2.67;2.28;;;;;;;14.91;88.28;101024.66;5979777;23;20007;-83
2021/06/09 02:20:44;;;;;;;3.55;2.63;;;;;;;14.89;88.42;101032.13;5960258;23;20015;-85
2021/06/09 02:23:17;;;;;;;2.17;1.67;;;;;;;14.87;88.20;101028.81;5959282;23;20023;-85
2021/06/09 02:25:46;;;;;;;2.42;1.80;;;;;;;14.78;88.29;101008.34;5958550;23;20072;-85
2021/06/09 02:28:12;;;;;;;2.55;1.85;;;;;;;14.84;88.44;101026.47;5959026;23;20004;-85
2021/06/09 02:30:39;;;;;;;3.10;2.35;;;;;;;14.81;88.47;101021.47;5958668;23;20017;-85
2021/06/09 02:33:05;;;;;;;3.08;2.10;;;;;;;14.67;88.31;101003.47;5959857;23;20007;-85
2021/06/09 02:35:35;;;;;;;3.05;2.15;;;;;;;14.78;88.45;101016.44;5959723;23;20012;-85
2021/06/09 02:38:01;;;;;;;2.53;1.92;;;;;;;14.77;88.22;101020.19;5957439;23;20010;-84
2021/06/09 02:40:26;;;;;;;2.50;1.90;;;;;;;14.79;88.63;101017.28;5958446;23;20003;-84
2021/06/09 02:42:52;;;;;;;3.20;1.70;;;;;;;14.76;88.36;101023.09;5981906;23;20078;-83
2021/06/09 02:45:19;;;;;;;3.22;2.03;;;;;;;14.76;88.51;101009.56;5960359;23;20012;-85
2021/06/09 02:47:54;;;;;;;2.30;2.00;;;;;;;14.77;88.69;101014.78;5959761;23;20011;-83
2021/06/09 02:50:21;;;;;;;3.30;1.60;;;;;;;14.75;88.44;101006.03;5957663;23;20019;-83
2021/06/09 02:53:05;;;;;;;2.35;1.65;;;;;;;14.81;88.36;101002.53;5981356;23;20030;-84
2021/06/09 02:55:49;;;;;;;2.00;1.50;;;;;;;14.76;88.33;101002.28;5981525;23;20050;-84
2021/06/09 02:58:21;;;;;;;2.17;1.40;;;;;;;14.80;88.34;101006.28;5957707;23;20018;-85
2021/06/09 03:01:42;;;;;;;2.35;1.75;;;;;;;14.75;88.35;100997.91;5957951;23;20047;-84
2021/06/09 03:04:18;;;;;;;;;;;;;;;14.76;88.60;101002.28;5871509;24;20013;-82
2021/06/09 03:06:59;;;;;;;2.42;1.65;;;;;;;14.72;88.55;100993.72;5893934;24;19915;-83
2021/06/09 03:10:01;;;;;;;2.60;1.80;;;;;;;14.74;88.22;100996.25;5928383;23;20094;-85
2021/06/09 03:13:24;;;;;;;1.83;1.33;;;;;;;14.78;88.64;100994.78;5980998;23;20027;-86
2021/06/09 03:16:07;;;;;;;2.10;1.50;;;;;;;14.78;88.51;100986.69;5872274;24;20010;-85
2021/06/09 03:18:42;;;;;;;;;;;;;;;14.81;88.49;100997.09;5977965;23;20506;-86
2021/06/09 03:21:11;;;;;;;2.00;1.50;;;;;;;14.76;88.37;100987.91;5959519;23;19917;-84
2021/06/09 03:23:52;;;;;;;2.20;1.60;;;;;;;14.81;88.25;100980.84;5960369;23;20048;-84
2021/06/09 03:26:30;;;;;;;2.60;1.48;;;;;;;14.79;88.34;100977.53;5958752;23;20011;-83
2021/06/09 03:29:07;;;;;;;2.17;1.30;;;;;;;14.88;88.30;100989.88;5982519;23;20008;-83
2021/06/09 03:31:38;;;;;;;1.80;1.50;;;;;;;14.92;88.20;100979.47;5983112;23;20649;-84
2021/06/09 03:34:05;;;;;;;2.03;1.23;;;;;;;14.87;88.23;100982.78;5959251;23;20033;-85
2021/06/09 03:36:39;;;;;;;2.13;1.50;;;;;;;14.90;88.00;100984.28;5959924;23;20042;-85
2021/06/09 03:39:07;;;;;;;1.75;1.27;;;;;;;14.83;87.96;100965.25;5959055;23;20107;-84
2021/06/09 03:41:39;;;;;;;2.05;1.42;;;;;;;14.89;88.13;100974.47;5958448;23;20033;-83
2021/06/09 03:44:05;;;;;;;1.75;1.23;;;;;;;14.94;88.05;100975.53;5983617;23;20277;-84
2021/06/09 03:46:31;;;;;;;2.00;1.40;;;;;;;14.83;88.17;100953.59;5960722;23;20059;-84
2021/06/09 03:48:58;;;;;;;2.97;1.40;;;;;;;14.99;87.98;100968.69;6005454;23;20026;-84
2021/06/09 03:51:24;;;;;;;1.45;1.00;;;;;;;14.99;87.77;100969.53;5958350;23;20031;-82
2021/06/09 03:53:52;;;;;;;1.63;1.15;;;;;;;15.05;87.71;100970.59;5982205;23;20004;-84
2021/06/09 03:56:18;;;;;;;1.70;1.17;;;;;;;14.95;87.53;100938.44;5958407;23;20004;-84
2021/06/09 03:58:44;;;;;;;1.60;1.10;;;;;;;14.97;87.62;100940.97;5981420;23;20448;-86
2021/06/09 04:01:12;;;;;;;2.25;1.30;;;;;;;15.12;87.72;100975.00;5981933;23;20422;-83
2021/06/09 04:03:39;;;;;;;2.08;1.40;;;;;;;15.07;87.53;100960.41;5957714;23;20007;-86
2021/06/09 04:06:06;;;;;;;1.75;1.35;;;;;;;15.09;87.25;100970.00;5982187;23;20015;-84
2021/06/09 04:08:33;;;;;;;2.00;1.33;;;;;;;15.10;87.64;100966.25;5958228;23;20012;-84
2021/06/09 04:10:59;;;;;;;2.72;1.80;;;;;;;15.06;87.48;100961.44;5957934;23;20011;-85
2021/06/09 04:13:25;;;;;;;2.60;1.63;;;;;;;15.00;87.62;100965.75;5960010;23;20345;-85
2021/06/09 04:15:51;;;;;;;2.50;2.00;;;;;;;15.07;87.72;100963.09;5959025;23;19996;-84
2021/06/09 04:18:17;;;;;;;2.83;1.63;;;;;;;15.03;87.85;100953.69;5957491;23;20007;-85
2021/06/09 04:20:43;;;;;;;3.30;2.03;;;;;;;15.06;87.77;100966.88;5960053;23;20003;-84
2021/06/09 04:23:10;;;;;;;2.10;1.80;;;;;;;15.01;87.62;100961.22;5961163;23;20019;-84
2021/06/09 04:25:35;;;;;;;2.30;1.63;;;;;;;15.00;88.09;100954.94;5981301;23;20019;-84
2021/06/09 04:28:02;;;;;;;1.98;1.38;;;;;;;14.92;87.95;100945.13;5981313;23;20000;-85
2021/06/09 04:30:27;;;;;;;1.90;1.20;;;;;;;14.95;88.08;100942.03;5958618;23;20011;-84
2021/06/09 04:32:58;;;;;;;1.80;1.33;;;;;;;15.02;88.14;100952.03;5957200;23;20008;-85
2021/06/09 04:35:27;;;;;;;1.38;1.00;;;;;;;15.02;88.09;100957.47;5979806;23;20007;-83
2021/06/09 04:37:53;;;;;;;1.67;1.20;;;;;;;14.97;87.94;100949.94;5980441;23;20014;-84
2021/06/09 04:40:24;;;;;;;2.60;1.20;;;;;;;14.83;88.05;100930.06;5959237;23;20008;-84
2021/06/09 04:42:50;;;;;;;1.70;1.00;;;;;;;15.03;88.06;100951.00;5958272;23;20055;-84
2021/06/09 04:45:17;;;;;;;1.40;1.00;;;;;;;15.03;87.99;100959.97;5958389;23;20492;-83
2021/06/09 04:47:44;;;;;;;1.10;0.80;;;;;;;15.04;88.08;100955.38;5958876;23;20350;-85
2021/06/09 04:50:10;;;;;;;1.70;0.98;;;;;;;15.05;88.07;100954.34;5958895;23;20455;-84
2021/06/09 04:52:36;;;;;;;1.65;0.90;;;;;;;15.06;88.15;100954.16;5959150;23;20504;-85
2021/06/09 04:55:02;;;;;;;0.93;0.60;;;;;;;15.06;88.11;100956.03;5982646;23;20007;-84
2021/06/09 04:57:28;;;;;;;1.20;0.80;;;;;;;15.03;87.91;100945.56;5960232;23;20619;-84
2021/06/09 04:59:53;;;;;;;0.90;0.63;;;;;;;15.08;88.19;100960.22;5963133;23;20007;-84
2021/06/09 05:02:20;;;;;;;1.05;0.80;;;;;;;15.14;87.93;100966.69;5964140;23;20011;-84
2021/06/09 05:04:45;;;;;;;1.30;1.00;;;;;;;15.07;87.94;100952.28;5964824;23;20015;-85
2021/06/09 05:07:11;;;;;;;1.67;0.80;;;;;;;15.12;87.89;100957.94;5963302;23;20000;-85
2021/06/09 05:09:36;;;;;;;1.13;0.75;;;;;;;15.06;88.03;100943.31;5963695;23;20046;-85
2021/06/09 05:12:13;;;;;;;1.02;0.73;;;;;;;15.11;88.11;100953.53;5963233;23;20007;-85
2021/06/09 05:14:50;;;;;;;1.17;0.80;;;;;;;15.11;88.24;100948.97;5963927;23;20008;-84
2021/06/09 05:17:22;;;;;;;0.82;0.68;;;;;;;15.12;88.03;100947.94;5987687;23;20007;-84
2021/06/09 05:19:48;;;;;;;1.05;0.70;;;;;;;15.11;87.88;100951.69;5963130;23;20008;-85
2021/06/09 05:22:21;;;;;;;1.40;0.90;;;;;;;15.09;88.07;100947.50;5965135;23;20003;-84
2021/06/09 05:24:48;;;;;;;1.30;0.80;;;;;;;14.90;88.23;100912.00;5964000;23;20007;-84
2021/06/09 05:27:15;;;;;;;1.50;0.90;;;;;;;15.08;88.08;100940.41;5987450;23;20064;-84
2021/06/09 05:29:43;;;;;;;1.58;1.17;;;;;;;15.13;88.10;100951.47;5963429;23;20008;-84
2021/06/09 05:32:09;;;;;;;1.60;0.80;;;;;;;15.10;88.02;100938.31;5987269;23;20011;-85
2021/06/09 05:34:39;;;;;;;1.70;1.20;;;;;;;15.16;88.00;100945.63;5988116;23;20011;-85
2021/06/09 05:37:04;;;;;;;1.52;1.23;;;;;;;15.14;87.90;100939.63;5963365;23;20008;-84
2021/06/09 05:39:30;;;;;;;1.95;1.13;;;;;;;15.17;87.96;100936.50;5961702;23;20754;-85
2021/06/09 05:41:55;;;;;;;1.92;1.20;;;;;;;15.14;87.82;100936.91;5963842;23;20027;-85
2021/06/09 05:44:23;;;;;;;1.80;1.20;;;;;;;15.16;87.81;100940.22;5963206;23;20014;-85
2021/06/09 05:46:49;;;;;;;2.10;1.20;;;;;;;15.10;87.78;100931.03;5963710;23;20092;-84
2021/06/09 05:49:32;;;;;;;1.58;1.15;;;;;;;15.19;87.68;100939.84;5984552;23;20016;-84
2021/06/09 05:51:58;;;;;;;2.42;1.10;;;;;;;15.12;87.71;100920.00;5963770;23;20091;-84
2021/06/09 05:54:24;;;;;;;1.60;1.00;;;;;;;15.24;87.29;100929.25;5964810;23;20003;-84
2021/06/09 05:56:49;;;;;;;1.95;1.15;;;;;;;15.31;87.45;100951.75;5984829;23;20004;-85
2021/06/09 05:59:16;;;;;;;1.75;1.10;;;;;;;15.34;87.10;100939.69;5960562;23;20346;-83
2021/06/09 06:01:42;;;;;;;2.15;1.67;;;;;;;15.41;87.06;100954.09;5959790;23;20454;-84
2021/06/09 06:04:09;;;;;;;1.70;1.20;;;;;;;15.44;86.91;100952.84;5961098;23;20489;-84
2021/06/09 06:06:35;;;;;;;1.98;1.30;;;;;;;15.51;86.79;100937.47;5959510;23;20012;-83
2021/06/09 06:09:03;;;;;;;2.13;1.40;;;;;;;15.57;86.51;100948.31;5959660;23;20011;-85
2021/06/09 06:11:28;;;;;;;1.92;1.20;;;;;;;15.59;86.24;100940.81;5961162;23;20353;-82
2021/06/09 06:13:54;;;;;;;2.70;1.33;;;;;;;15.64;86.22;100953.75;5961290;23;20457;-84
2021/06/09 06:16:20;;;;;;;1.42;1.10;;;;;;;15.61;86.34;100946.00;5961210;23;20016;-84
2021/06/09 06:18:47;;;;;;;2.45;1.33;;;;;;;15.61;85.94;100944.16;5982505;23;20035;-84
2021/06/09 06:21:14;;;;;;;2.03;1.02;;;;;;;15.65;86.11;100947.28;5960104;23;20165;-84
2021/06/09 06:23:40;;;;;;;1.48;1.10;;;;;;;15.60;86.06;100939.75;5960342;23;20031;-86
2021/06/09 06:26:06;;;;;;;1.60;1.23;;;;;;;15.68;86.20;100948.75;5982832;23;20007;-84
2021/06/09 06:28:32;;;;;;;2.22;1.35;;;;;;;15.68;86.05;100937.91;5981665;23;20494;-84
2021/06/09 06:30:58;;;;;;;1.95;1.25;;;;;;;15.72;85.84;100942.75;5960198;23;20014;-85
2021/06/09 06:33:25;;;;;;;2.20;1.30;;;;;;;15.70;85.75;100941.28;5958613;23;20011;-83
2021/06/09 06:35:51;;;;;;;2.80;1.15;;;;;;;15.64;85.69;100929.38;5959056;23;20030;-85
2021/06/09 06:38:19;;;;;;;1.73;1.20;;;;;;;15.63;86.00;100941.22;5961389;23;20007;-85
2021/06/09 06:40:44;;;;;;;1.50;1.10;;;;;;;15.59;86.18;100948.94;5962561;23;20014;-85
2021/06/09 06:43:10;;;;;;;2.50;1.23;;;;;;;15.53;86.16;100941.63;5961685;23;20082;-85
2021/06/09 06:45:36;;;;;;;1.20;0.82;;;;;;;15.51;86.46;100941.00;5962862;23;20083;-83
2021/06/09 06:48:02;;;;;;;1.13;0.90;;;;;;;15.49;86.43;100939.53;5960710;23;20401;-85
2021/06/09 06:50:28;;;;;;;1.10;0.80;;;;;;;15.47;86.72;100938.91;5960882;23;20095;-84
2021/06/09 06:52:54;;;;;;;1.48;0.95;;;;;;;15.39;86.63;100934.50;5986462;23;20008;-84
2021/06/09 06:55:22;;;;;;;0.98;0.80;;;;;;;15.43;86.84;100940.31;5962752;23;20026;-84
2021/06/09 06:57:49;;;;;;;1.17;0.88;;;;;;;15.48;86.87;100945.97;5961972;23;20337;-83
2021/06/09 07:00:20;;;;;;;1.60;0.90;;;;;;;15.47;86.66;100953.28;5963012;23;20008;-85
2021/06/09 07:02:48;;;;;;;0.98;0.80;;;;;;;15.39;86.96;100948.88;5984749;23;20371;-85
2021/06/09 07:05:14;;;;;;;1.98;0.80;;;;;;;15.27;87.40;100934.25;5984380;23;20016;-84
2021/06/09 07:07:41;;;;;;;1.13;0.75;;;;;;;15.26;87.88;100948.81;5961188;23;20008;-85
2021/06/09 07:10:09;;;;;;;0.85;0.60;;;;;;;15.33;87.91;100954.28;5961671;23;20020;-84
2021/06/09 07:12:36;;;;;;;0.60;0.50;;;;;;;15.32;88.30;100958.00;5962585;23;20008;-84
2021/06/09 07:15:05;;;;;;;0.73;0.52;;;;;;;15.34;88.65;100972.19;5985192;23;20011;-83
2021/06/09 07:17:32;;;;;;;0.98;0.63;;;;;;;15.23;88.63;100951.09;5961119;23;20031;-83
2021/06/09 07:19:58;;;;;;;0.63;0.50;;;;;;;15.25;88.86;100955.28;5961533;23;20020;-84
2021/06/09 07:22:23;;;;;;;0.80;0.60;;;;;;;15.33;89.07;100967.81;5962664;23;20452;-84
2021/06/09 07:24:52;;;;;;;0.70;0.60;;;;;;;15.34;88.98;100973.03;5960478;23;20007;-84
2021/06/09 07:27:18;;;;;;;0.70;0.50;;;;;;;15.30;88.95;100960.09;5985038;23;20423;-83
2021/06/09 07:29:44;;;;;;;0.50;0.50;;;;;;;15.34;89.18;100967.59;5961261;23;20045;-84
2021/06/09 07:32:10;;;;;;;0.57;0.50;;;;;;;15.37;89.23;100971.78;5962679;23;20019;-84
2021/06/09 07:34:35;;;;;;;0.50;0.50;;;;;;;15.39;89.40;100975.97;5985383;23;20012;-83
2021/06/09 07:37:05;;;;;;;0.60;0.60;;;;;;;15.40;89.17;100979.53;5985747;23;20449;-84
2021/06/09 07:39:49;;;;;;;0.50;0.50;;;;;;;15.44;89.40;100979.94;5960749;23;20019;-85
2021/06/09 07:42:17;;;;;;;0.52;0.52;;;;;;;15.40;89.75;100974.13;5961406;23;20110;-83
2021/06/09 07:45:06;;;;;;;0.93;0.50;;;;;;;15.33;89.69;100968.66;5961725;23;20071;-85
2021/06/09 07:47:33;;;;;;;0.70;0.60;;;;;;;15.28;89.58;100963.00;5984252;23;20063;-83
2021/06/09 07:49:59;;;;;;;1.48;0.52;;;;;;;15.26;89.60;100973.19;5961914;23;20434;-84
2021/06/09 07:52:26;;;;;;;0.60;0.60;;;;;;;15.23;89.64;100981.72;5962240;23;20015;-84
2021/06/09 07:54:56;;;;;;;0.73;0.60;;;;;;;14.93;89.72;100933.25;5983169;23;20032;-84
2021/06/09 07:57:24;;;;;;;4.47;1.48;;;;;;;15.19;89.81;100975.06;5961874;23;20008;-84
2021/06/09 07:59:50;;;;;;;5.60;1.50;;;;;;;15.21;89.77;100983.78;5960992;23;20003;-84
2021/06/09 08:02:19;;;;;;;3.17;0.80;;;;;;;15.23;89.85;100973.59;5960966;23;20023;-84
2021/06/09 08:04:46;;;;;;;0.50;0.50;;;;;;;15.26;89.61;100967.78;5984818;23;20011;-84
2021/06/09 08:07:11;;;;;;;0.60;0.60;;;;;;;15.34;89.33;100973.03;5984139;23;20357;-84
2021/06/09 08:09:37;;;;;;;0.70;0.70;;;;;;;15.39;89.09;100962.41;5959700;23;20445;-85
2021/06/09 08:12:05;;;;;;;0.98;0.80;;;;;;;15.47;88.83;100952.44;5961475;23;20004;-83
2021/06/09 08:14:31;;;;;;;0.88;0.70;;;;;;;15.60;88.31;100979.59;5985509;23;20033;-85
2021/06/09 08:16:57;;;;;;;4.68;2.00;;;;;;;15.64;88.46;100975.44;5962071;23;20060;-84
2021/06/09 08:19:22;;;;;;;1.50;0.95;;;;;;;15.68;88.37;100963.13;5962681;23;20008;-85
2021/06/09 08:21:48;;;;;;;1.55;1.00;;;;;;;15.88;88.40;100994.91;5963998;23;20011;-84
2021/06/09 08:24:14;;;;;;;1.20;1.10;;;;;;;15.97;88.05;100988.28;5964341;23;20018;-83
2021/06/09 08:26:41;;;;;;;0.60;0.60;;;;;;;16.09;87.60;100970.34;5965365;23;20011;-84
2021/06/09 08:29:07;;;;;;;1.13;0.85;;;;;;;16.35;87.16;100979.53;6011407;23;20079;-85
2021/06/09 08:31:35;;;;;;;0.70;0.70;;;;;;;16.67;86.05;100980.56;5983208;23;20010;-84
2021/06/09 08:34:01;;;;;;;0.98;0.80;;;;;;;16.80;85.79;100972.41;5983515;23;20020;-84
2021/06/09 08:36:28;;;;;;;3.00;0.77;;;;;;;16.79;85.78;100978.91;5961581;23;20008;-85
2021/06/09 08:38:56;;;;;;;6.00;1.55;;;;;;;16.74;85.73;100986.81;5959792;23;20015;-83
2021/06/09 08:41:31;;;;;;;2.53;0.90;;;;;;;16.55;85.80;100985.81;5961234;23;20011;-84
2021/06/09 08:44:02;;;;;;;0.93;0.60;;;;;;;16.45;86.07;100980.78;5984553;23;20011;-85
2021/06/09 08:46:28;;;;;;;0.70;0.50;;;;;;;16.35;86.44;100969.50;5984526;23;20360;-85
2021/06/09 08:48:56;;;;;;;0.70;0.70;;;;;;;16.38;86.17;100979.09;5986429;23;20009;-84
2021/06/09 08:51:22;;;;;;;0.70;0.70;;;;;;;16.40;86.10;100967.00;5962489;23;20007;-84
2021/06/09 08:53:49;;;;;;;0.80;0.65;;;;;;;16.51;85.73;100962.81;5985115;23;20011;-84
2021/06/09 08:56:16;;;;;;;0.70;0.70;;;;;;;16.66;86.15;100971.59;5985978;23;20338;-85
2021/06/09 08:58:42;;;;;;;0.60;0.60;;;;;;;16.64;85.38;100970.94;5960435;23;20076;-84
2021/06/09 09:01:08;;;;;;;0.88;0.70;;;;;;;16.65;85.34;100979.97;5961538;23;20659;-84
2021/06/09 09:03:39;;;;;;;0.80;0.80;;;;;;;16.63;85.05;100971.19;5962478;23;20010;-84
2021/06/09 09:06:05;;;;;;;1.20;1.00;;;;;;;16.64;84.89;100972.84;5984759;23;20010;-85
2021/06/09 09:08:31;;;;;;;1.73;0.80;;;;;;;16.75;84.76;100974.06;5960019;23;20088;-84
2021/06/09 09:10:57;;;;;;;1.00;0.70;;;;;;;16.92;84.57;100983.50;5985174;23;20007;-84
2021/06/09 09:13:24;;;;;;;0.90;0.75;;;;;;;16.99;84.63;100976.16;5984219;23;20075;-83
2021/06/09 09:15:49;;;;;;;2.22;0.93;;;;;;;16.99;84.51;100976.16;5960314;23;20003;-84
2021/06/09 09:18:15;;;;;;;1.10;0.80;;;;;;;16.97;84.06;100972.81;5984401;23;20007;-84
2021/06/09 09:20:43;;;;;;;1.00;0.88;;;;;;;16.96;84.36;100981.19;5962376;23;20325;-84
2021/06/09 09:23:23;;;;;;;1.00;0.90;;;;;;;16.90;84.29;100978.25;5983807;23;20011;-85
2021/06/09 09:25:54;;;;;;;0.90;0.73;;;;;;;16.81;84.12;100986.88;5984929;23;20004;-85
2021/06/09 09:28:23;;;;;;;1.00;0.90;;;;;;;16.84;84.40;100991.88;5974833;23;20014;-85
2021/06/09 09:30:49;;;;;;;0.82;0.77;;;;;;;16.77;84.34;100972.00;5961436;23;20012;-84
2021/06/09 09:33:19;;;;;;;1.33;1.00;;;;;;;16.84;84.40;100994.59;5961676;23;20386;-84
2021/06/09 09:35:46;;;;;;;2.90;1.00;;;;;;;16.88;84.00;101001.25;5963219;23;20003;-84
2021/06/09 09:38:20;;;;;;;2.97;1.52;;;;;;;16.89;84.22;101001.03;5984035;23;20018;-84
2021/06/09 09:41:03;;;;;;;2.35;2.15;;;;;;;16.88;84.26;100995.81;5963355;23;20007;-85
2021/06/09 09:43:43;;;;;;;7.15;5.22;;;;;;;16.97;84.45;101000.00;5963420;23;20004;-84
2021/06/09 09:46:11;;;;;;;5.20;3.28;;;;;;;17.12;84.15;100994.28;5985988;23;20015;-85
2021/06/09 09:48:40;;;;;;;2.90;2.05;;;;;;;17.33;83.54;101001.34;5986173;23;20007;-85
2021/06/09 09:51:06;;;;;;;1.80;1.30;;;;;;;17.42;82.94;101000.06;5963399;23;20012;-84
2021/06/09 09:53:32;;;;;;;1.40;1.10;;;;;;;17.49;82.47;100997.31;5985822;23;20039;-85
2021/06/09 09:56:00;;;;;;;1.38;1.13;;;;;;;17.64;82.40;101011.47;5986084;23;20007;-85
2021/06/09 09:58:27;;;;;;;1.73;1.45;;;;;;;17.61;82.03;101002.91;6011832;23;20836;-85
2021/06/09 10:01:12;;;;;;;1.13;0.98;;;;;;;17.62;82.18;101010.84;5962333;23;20019;-85
2021/06/09 10:03:42;;;;;;;1.23;0.77;;;;;;;17.56;81.79;101011.72;5982721;23;20082;-83
2021/06/09 10:06:22;;;;;;;1.10;1.00;;;;;;;17.55;81.92;101018.22;5939564;24;96751;-85
2021/06/09 10:08:49;;;;;;;0.70;0.70;;;;;;;17.42;82.26;101019.09;5979884;23;20033;-84
2021/06/09 10:11:16;;;;;;;1.00;0.90;;;;;;;17.30;82.56;101018.91;5961099;23;20093;-83
2021/06/09 10:13:42;;;;;;;2.22;0.90;;;;;;;17.22;83.15;101013.72;5960876;23;20509;-84
2021/06/09 10:16:26;;;;;;;1.20;1.00;;;;;;;17.23;83.62;101020.81;5983842;23;19999;-84
2021/06/09 10:18:58;;;;;;;1.15;1.05;;;;;;;17.29;83.61;101019.13;5960094;23;20387;-84
2021/06/09 10:21:24;;;;;;;1.75;0.98;;;;;;;17.31;82.83;101011.63;5984652;23;20012;-84
2021/06/09 10:23:49;;;;;;;1.98;1.02;;;;;;;17.13;81.80;100977.78;5983869;23;20063;-84
2021/06/09 10:26:17;;;;;;;1.20;1.00;;;;;;;17.31;80.95;100995.31;5984465;23;20014;-85
2021/06/09 10:29:08;;;;;;;1.10;0.95;;;;;;;17.48;80.77;101011.97;5959782;23;20362;-84
2021/06/09 10:31:37;;;;;;;1.42;1.27;;;;;;;17.60;80.73;101021.13;5984517;23;20466;-86
2021/06/09 10:34:03;;;;;;;1.17;1.08;;;;;;;17.62;80.56;100999.13;5960283;23;20015;-84
2021/06/09 10:36:29;;;;;;;2.08;1.40;;;;;;;17.77;79.73;101011.41;5961156;23;20004;-85
2021/06/09 10:38:55;;;;;;;1.63;1.42;;;;;;;17.87;78.97;101013.69;5960122;23;20063;-84
2021/06/09 10:41:25;;;;;;;1.42;1.30;;;;;;;17.79;79.26;101022.09;5959854;23;20034;-83
2021/06/09 10:43:53;;;;;;;1.40;1.08;;;;;;;17.71;80.11;101025.03;5960883;23;20064;-86
2021/06/09 10:46:25;;;;;;;1.58;1.33;;;;;;;17.53;80.63;101032.00;5984011;23;20346;-83
2021/06/09 10:48:54;;;;;;;2.13;1.73;;;;;;;17.46;81.33;101043.94;5959254;23;20039;-85
2021/06/09 10:51:20;;;;;;;2.28;1.80;;;;;;;17.39;81.97;101035.84;5960611;23;20016;-85
2021/06/09 10:53:45;;;;;;;2.55;1.70;;;;;;;17.37;82.26;101040.66;5960342;23;20019;-84
2021/06/09 10:56:14;;;;;;;2.25;1.48;;;;;;;17.36;82.47;101042.53;5960206;23;20097;-84
2021/06/09 10:58:40;;;;;;;1.85;1.55;;;;;;;17.31;82.54;101031.47;5959746;23;20440;-85
2021/06/09 11:01:07;;;;;;;1.85;1.50;;;;;;;17.45;82.36;101029.53;5984092;23;20007;-84
2021/06/09 11:03:34;;;;;;;2.25;1.67;;;;;;;17.67;81.27;101026.50;5960705;23;20038;-84
2021/06/09 11:06:03;;;;;;;1.95;1.48;;;;;;;17.95;80.18;101031.66;5960546;23;20118;-85
2021/06/09 11:08:30;;;;;;;3.13;1.38;;;;;;;18.22;79.96;101029.59;5983355;23;20091;-85
2021/06/09 11:10:57;;;;;;;1.80;1.30;;;;;;;18.24;79.22;101022.88;5960940;23;20050;-84
2021/06/09 11:13:41;;;;;;;1.60;1.38;;;;;;;18.37;78.80;101034.72;5959901;23;20064;-86
2021/06/09 11:16:09;;;;;;;1.63;1.30;;;;;;;18.45;78.37;101034.47;5985867;23;19999;-84
2021/06/09 11:18:41;;;;;;;2.95;1.52;;;;;;;18.62;77.66;101042.91;5979174;23;20003;-84
2021/06/09 11:21:08;;;;;;;2.03;1.42;;;;;;;18.62;77.55;101051.06;5958077;23;20004;-84
2021/06/09 11:23:37;;;;;;;2.95;1.50;;;;;;;18.55;77.78;101048.41;5983982;23;20007;-84
2021/06/09 11:26:04;;;;;;;2.42;1.50;;;;;;;18.46;77.95;101042.38;5981915;23;20004;-85
2021/06/09 11:28:33;;;;;;;1.50;1.40;;;;;;;18.50;77.97;101059.13;5959610;23;20035;-84
2021/06/09 11:31:03;;;;;;;1.83;1.40;;;;;;;18.57;77.91;101056.34;6008297;23;20029;-85
2021/06/09 11:33:47;;;;;;;1.95;1.75;;;;;;;18.69;77.44;101062.75;5960037;23;20007;-85